createdAt,value
2023-03-27T00:02:23.701Z,97241.63
2023-03-27T00:04:50.759Z,97228.28
2023-03-27T00:07:20.084Z,97235.19
2023-03-27T00:09:47.070Z,97229.81
2023-03-27T00:12:14.426Z,97228.09
2023-03-27T00:14:41.576Z,97226.16
2023-03-27T00:17:09.338Z,97218.31
2023-03-27T00:19:36.574Z,97218.13
2023-03-27T00:22:03.927Z,97206.72
2023-03-27T00:24:31.065Z,97205.00
2023-03-27T00:26:58.339Z,97196.31
2023-03-27T00:29:25.248Z,97195.56
2023-03-27T00:31:52.463Z,97191.16
2023-03-27T00:34:19.535Z,97194.72
2023-03-27T00:36:51.226Z,97196.31
2023-03-27T00:39:19.306Z,97189.22
2023-03-27T00:41:47.410Z,97182.13
2023-03-27T00:44:27.046Z,97168.25
2023-03-27T00:46:57.174Z,97156.75
2023-03-27T00:49:28.851Z,97157.50
2023-03-27T00:51:59.072Z,97148.69
2023-03-27T00:54:30.202Z,97152.28
2023-03-27T00:57:05.321Z,97149.72
2023-03-27T00:59:36.750Z,97148.06
2023-03-27T01:02:04.896Z,97152.47
2023-03-27T01:04:33.833Z,97148.13
2023-03-27T01:07:01.026Z,97146.75
2023-03-27T01:09:27.975Z,97148.41
2023-03-27T01:12:07.271Z,97155.59
2023-03-27T01:14:40.406Z,97156.63
2023-03-27T01:17:16.872Z,97148.88
2023-03-27T01:19:53.966Z,97145.50
2023-03-27T01:22:55.555Z,97133.50
2023-03-27T01:25:54.960Z,97148.47
2023-03-27T01:28:43.880Z,97137.03
2023-03-27T01:31:32.436Z,97135.44
2023-03-27T01:34:02.480Z,97136.31
2023-03-27T01:36:32.205Z,97136.22
2023-03-27T01:39:05.516Z,97131.09
2023-03-27T01:41:43.728Z,97132.00
2023-03-27T01:44:25.289Z,97125.16
2023-03-27T01:47:22.170Z,97123.38
2023-03-27T01:49:55.643Z,97121.13
2023-03-27T01:52:29.429Z,97114.00
2023-03-27T01:55:05.031Z,97110.47
2023-03-27T01:57:49.188Z,97106.34
2023-03-27T02:00:22.611Z,97102.91
2023-03-27T02:03:02.450Z,97107.19
2023-03-27T02:05:36.638Z,97103.72
2023-03-27T02:08:21.424Z,97096.91
2023-03-27T02:10:53.795Z,97100.28
2023-03-27T02:13:30.580Z,97099.44
2023-03-27T02:16:00.130Z,97100.44
2023-03-27T02:18:36.025Z,97102.41
2023-03-27T02:21:04.275Z,97100.81
2023-03-27T02:23:31.137Z,97099.13
2023-03-27T02:25:59.775Z,97103.59
2023-03-27T02:28:49.256Z,97101.91
2023-03-27T02:31:36.511Z,97097.59
2023-03-27T02:34:15.462Z,97095.75
2023-03-27T02:37:04.043Z,97103.59
2023-03-27T02:39:52.289Z,97099.38
2023-03-27T02:42:41.824Z,97097.53
2023-03-27T02:45:16.797Z,97100.06
2023-03-27T02:47:54.888Z,97099.94
2023-03-27T02:50:38.300Z,97090.34
2023-03-27T02:53:08.863Z,97096.22
2023-03-27T02:55:40.415Z,97098.84
2023-03-27T02:58:13.493Z,97092.03
2023-03-27T03:00:48.891Z,97095.59
2023-03-27T03:03:21.084Z,97096.41
2023-03-27T03:05:48.194Z,97101.66
2023-03-27T03:08:15.674Z,97098.19
2023-03-27T03:10:44.962Z,97093.81
2023-03-27T03:13:12.354Z,97090.06
2023-03-27T03:15:39.362Z,97084.72
2023-03-27T03:18:07.715Z,97092.59
2023-03-27T03:20:35.522Z,97085.47
2023-03-27T03:23:02.938Z,97088.03
2023-03-27T03:25:31.398Z,97078.31
2023-03-27T03:28:01.541Z,97076.44
2023-03-27T03:30:30.461Z,97078.13
2023-03-27T03:32:57.882Z,97072.22
2023-03-27T03:35:25.857Z,97077.09
2023-03-27T03:37:53.210Z,97073.34
2023-03-27T03:40:21.081Z,97065.22
2023-03-27T03:42:50.549Z,97063.38
2023-03-27T03:45:17.749Z,97073.09
2023-03-27T03:47:45.844Z,97067.69
2023-03-27T03:50:13.318Z,97074.59
2023-03-27T03:52:41.813Z,97070.94
2023-03-27T03:55:12.050Z,97081.34
2023-03-27T03:57:39.433Z,97070.84
2023-03-27T04:00:08.849Z,97076.94
2023-03-27T04:02:37.244Z,97074.41
2023-03-27T04:05:08.441Z,97071.78
2023-03-27T04:07:36.351Z,97073.69
2023-03-27T04:10:04.141Z,97083.28
2023-03-27T04:12:31.573Z,97079.84
2023-03-27T04:14:58.523Z,97074.78
2023-03-27T04:17:28.822Z,97074.69
2023-03-27T04:19:55.788Z,97077.41
2023-03-27T04:22:23.415Z,97076.56
2023-03-27T04:24:50.732Z,97079.34
2023-03-27T04:27:18.227Z,97073.28
2023-03-27T04:29:47.496Z,97073.19
2023-03-27T04:32:19.430Z,97075.69
2023-03-27T04:34:47.278Z,97070.47
2023-03-27T04:37:14.742Z,97072.25
2023-03-27T04:39:46.339Z,97076.66
2023-03-27T04:42:16.892Z,97067.84
2023-03-27T04:44:46.565Z,97073.84
2023-03-27T04:47:14.519Z,97072.91
2023-03-27T04:49:43.771Z,97074.50
2023-03-27T04:52:14.197Z,97076.19
2023-03-27T04:54:42.140Z,97066.47
2023-03-27T04:57:10.113Z,97067.28
2023-03-27T04:59:37.705Z,97062.72
2023-03-27T05:02:06.544Z,97066.84
2023-03-27T05:04:33.691Z,97067.50
2023-03-27T05:07:02.689Z,97071.56
2023-03-27T05:09:29.579Z,97065.22
2023-03-27T05:11:56.772Z,97071.75
2023-03-27T05:14:24.009Z,97070.53
2023-03-27T05:16:52.522Z,97073.72
2023-03-27T05:19:20.241Z,97075.88
2023-03-27T05:21:48.064Z,97071.09
2023-03-27T05:24:15.929Z,97067.34
2023-03-27T05:26:43.531Z,97070.22
2023-03-27T05:29:10.604Z,97062.06
2023-03-27T05:31:38.406Z,97064.13
2023-03-27T05:34:05.929Z,97060.47
2023-03-27T05:36:33.301Z,97058.38
2023-03-27T05:39:00.128Z,97059.69
2023-03-27T05:41:27.756Z,97063.78
2023-03-27T05:43:54.631Z,97057.94
2023-03-27T05:46:22.477Z,97066.19
2023-03-27T05:48:49.648Z,97058.94
2023-03-27T05:51:17.588Z,97064.94
2023-03-27T05:53:44.515Z,97063.34
2023-03-27T05:56:12.052Z,97066.06
2023-03-27T05:58:39.009Z,97068.81
2023-03-27T06:01:06.300Z,97069.72
2023-03-27T06:03:36.715Z,97067.03
2023-03-27T06:06:08.776Z,97068.69
2023-03-27T06:08:36.738Z,97073.75
2023-03-27T06:11:14.030Z,97066.63
2023-03-27T06:13:41.596Z,97064.63
2023-03-27T06:16:09.174Z,97068.28
2023-03-27T06:18:36.666Z,97074.28
2023-03-27T06:21:04.257Z,97073.38
2023-03-27T06:23:32.038Z,97083.66
2023-03-27T06:25:59.589Z,97080.94
2023-03-27T06:28:26.553Z,97083.06
2023-03-27T06:30:53.725Z,97084.34
2023-03-27T06:33:20.688Z,97078.69
2023-03-27T06:35:53.512Z,97084.28
2023-03-27T06:38:21.276Z,97088.94
2023-03-27T06:40:48.499Z,97086.09
2023-03-27T06:43:19.036Z,97086.72
2023-03-27T06:45:49.261Z,97086.81
2023-03-27T06:48:20.566Z,97089.09
2023-03-27T06:50:51.223Z,97088.50
2023-03-27T06:53:27.309Z,97084.16
2023-03-27T06:55:56.865Z,97089.97
2023-03-27T06:58:24.454Z,97092.38
2023-03-27T07:00:51.767Z,97090.28
2023-03-27T07:03:21.741Z,97098.81
2023-03-27T07:05:49.743Z,97101.53
2023-03-27T07:08:24.452Z,97092.16
2023-03-27T07:11:10.862Z,97097.63
2023-03-27T07:13:41.254Z,97090.81
2023-03-27T07:16:12.246Z,97101.72
2023-03-27T07:18:39.693Z,97106.63
2023-03-27T07:21:08.394Z,97110.78
2023-03-27T07:23:35.869Z,97115.50
2023-03-27T07:26:03.413Z,97109.50
2023-03-27T07:28:30.624Z,97103.31
2023-03-27T07:30:58.049Z,97105.63
2023-03-27T07:33:25.323Z,97104.28
2023-03-27T07:35:52.753Z,97112.53
2023-03-27T07:38:20.023Z,97107.72
2023-03-27T07:40:47.239Z,97114.63
2023-03-27T07:43:14.369Z,97110.25
2023-03-27T07:45:42.348Z,97108.06
2023-03-27T07:48:12.021Z,97107.63
2023-03-27T07:50:39.589Z,97110.59
2023-03-27T07:53:06.780Z,97115.31
2023-03-27T07:55:37.718Z,97112.28
2023-03-27T07:58:06.993Z,97112.63
2023-03-27T08:00:36.085Z,97106.00
2023-03-27T08:03:08.235Z,97114.63
2023-03-27T08:05:37.201Z,97109.88
2023-03-27T08:08:05.132Z,97113.25
2023-03-27T08:10:32.789Z,97120.00
2023-03-27T08:12:59.750Z,97113.69
2023-03-27T08:15:27.026Z,97114.31
2023-03-27T08:17:55.408Z,97112.31
2023-03-27T08:20:24.123Z,97107.69
2023-03-27T08:22:52.865Z,97109.38
2023-03-27T08:25:22.685Z,97117.91
2023-03-27T08:27:50.748Z,97110.00
2023-03-27T08:30:19.188Z,97119.38
2023-03-27T08:32:46.451Z,97115.78
2023-03-27T08:35:13.750Z,97116.50
2023-03-27T08:37:41.671Z,97113.59
2023-03-27T08:40:19.734Z,97116.88
2023-03-27T08:42:52.847Z,97109.81
2023-03-27T08:45:48.195Z,97111.91
2023-03-27T08:48:22.194Z,97110.03
2023-03-27T08:50:54.793Z,97110.03
2023-03-27T08:53:30.919Z,97104.94
2023-03-27T08:55:58.642Z,97108.34
2023-03-27T08:58:26.857Z,97105.91
2023-03-27T09:01:01.288Z,97107.16
2023-03-27T09:03:35.861Z,97104.66
2023-03-27T09:06:11.647Z,97100.31
2023-03-27T09:09:22.096Z,97103.69
2023-03-27T09:12:06.786Z,97099.91
2023-03-27T09:14:38.770Z,97093.50
2023-03-27T09:17:19.044Z,97094.03
2023-03-27T09:20:10.795Z,97093.59
2023-03-27T09:22:44.291Z,97089.81
2023-03-27T09:25:19.279Z,97089.50
2023-03-27T09:27:48.621Z,97091.78
2023-03-27T09:30:22.622Z,97083.56
2023-03-27T09:32:54.170Z,97089.97
2023-03-27T09:35:22.386Z,97077.31
2023-03-27T09:37:59.101Z,97080.59
2023-03-27T09:40:33.963Z,97081.81
2023-03-27T09:43:08.631Z,97081.38
2023-03-27T09:45:39.297Z,97079.13
2023-03-27T09:48:14.567Z,97084.16
2023-03-27T09:50:47.550Z,97084.78
2023-03-27T09:53:21.668Z,97081.09
2023-03-27T09:55:53.053Z,97075.84
2023-03-27T09:58:30.083Z,97074.56
2023-03-27T10:01:16.982Z,97069.78
2023-03-27T10:03:53.235Z,97070.94
2023-03-27T10:06:45.112Z,97069.59
2023-03-27T10:09:27.898Z,97070.88
2023-03-27T10:12:08.315Z,97067.22
2023-03-27T10:14:45.124Z,97065.81
2023-03-27T10:17:36.862Z,97070.03
2023-03-27T10:20:11.248Z,97065.72
2023-03-27T10:22:52.589Z,97069.28
2023-03-27T10:25:29.657Z,97072.75
2023-03-27T10:28:24.027Z,97068.47
2023-03-27T10:31:00.209Z,97066.56
2023-03-27T10:33:38.262Z,97069.19
2023-03-27T10:36:08.564Z,97059.19
2023-03-27T10:38:38.228Z,97053.91
2023-03-27T10:41:15.585Z,97066.66
2023-03-27T10:43:57.529Z,97060.56
2023-03-27T10:46:29.157Z,97058.56
2023-03-27T10:49:31.777Z,97057.00
2023-03-27T10:51:58.939Z,97052.47
2023-03-27T10:54:54.638Z,97047.84
2023-03-27T10:57:29.132Z,97047.19
2023-03-27T11:00:11.834Z,97035.94
2023-03-27T11:02:48.269Z,97032.03
2023-03-27T11:05:21.381Z,97034.25
2023-03-27T11:08:16.218Z,97038.34
2023-03-27T11:10:48.241Z,97041.81
2023-03-27T11:13:17.562Z,97044.44
2023-03-27T11:15:54.281Z,97040.44
2023-03-27T11:18:30.053Z,97045.81
2023-03-27T11:21:01.673Z,97032.53
2023-03-27T11:23:48.487Z,97034.34
2023-03-27T11:26:17.034Z,97025.28
2023-03-27T11:28:48.689Z,97024.03
2023-03-27T11:31:48.532Z,97024.47
2023-03-27T11:34:42.774Z,97018.81
2023-03-27T11:37:21.846Z,97023.97
2023-03-27T11:39:56.123Z,97017.00
2023-03-27T11:42:27.168Z,97025.88
2023-03-27T11:44:55.290Z,97020.69
2023-03-27T11:47:48.739Z,97020.03
2023-03-27T11:50:37.532Z,97029.72
2023-03-27T11:53:19.303Z,97030.16
2023-03-27T11:56:22.585Z,97027.09
2023-03-27T11:59:22.520Z,97033.88
2023-03-27T12:02:02.201Z,97029.97
2023-03-27T12:04:48.555Z,97029.22
2023-03-27T12:07:40.432Z,97025.16
2023-03-27T12:10:11.627Z,97023.28
2023-03-27T12:13:00.849Z,97032.19
2023-03-27T12:15:36.873Z,97027.78
2023-03-27T12:18:16.208Z,97031.16
2023-03-27T12:20:55.004Z,97028.53
2023-03-27T12:23:45.945Z,97031.66
2023-03-27T12:26:18.854Z,97031.25
2023-03-27T12:29:23.091Z,97029.59
2023-03-27T12:31:57.038Z,97040.31
2023-03-27T12:34:50.342Z,97044.56
2023-03-27T12:37:22.272Z,97042.38
2023-03-27T12:39:54.385Z,97047.31
2023-03-27T12:42:44.021Z,97040.78
2023-03-27T12:45:22.569Z,97052.22
2023-03-27T12:48:11.029Z,97047.28
2023-03-27T12:50:44.371Z,97048.41
2023-03-27T12:53:26.909Z,97053.03
2023-03-27T12:56:30.244Z,97047.34
2023-03-27T12:58:57.763Z,97049.53
2023-03-27T13:01:59.674Z,97052.09
2023-03-27T13:05:08.624Z,97057.56
2023-03-27T13:07:58.391Z,97061.31
2023-03-27T13:10:40.737Z,97063.75
2023-03-27T13:13:26.111Z,97070.78
2023-03-27T13:15:53.118Z,97075.72
2023-03-27T13:18:51.709Z,97077.50
2023-03-27T13:21:40.841Z,97067.09
2023-03-27T13:24:10.757Z,97075.56
2023-03-27T13:26:52.726Z,97077.75
2023-03-27T13:29:31.993Z,97080.97
2023-03-27T13:32:00.731Z,97084.91
2023-03-27T13:34:37.162Z,97087.81
2023-03-27T13:37:11.275Z,97083.78
2023-03-27T13:39:41.605Z,97093.06
2023-03-27T13:42:21.318Z,97102.38
2023-03-27T13:45:04.100Z,97105.72
2023-03-27T13:47:33.762Z,97114.81
2023-03-27T13:50:41.675Z,97113.59
2023-03-27T13:53:26.524Z,97119.75
2023-03-27T13:56:18.367Z,97127.97
2023-03-27T13:59:03.270Z,97128.44
2023-03-27T14:01:42.214Z,97127.75
2023-03-27T14:04:34.148Z,97140.19
2023-03-27T14:07:26.779Z,97145.72
2023-03-27T14:10:31.228Z,97142.03
2023-03-27T14:13:03.549Z,97145.09
2023-03-27T14:15:57.605Z,97156.78
2023-03-27T14:18:30.897Z,97160.38
2023-03-27T14:21:02.263Z,97152.72
2023-03-27T14:23:56.204Z,97151.19
2023-03-27T14:26:25.644Z,97155.69
2023-03-27T14:28:59.194Z,97159.50
2023-03-27T14:31:28.913Z,97165.66
2023-03-27T14:34:08.239Z,97167.63
2023-03-27T14:36:42.429Z,97167.00
2023-03-27T14:39:16.513Z,97160.19
2023-03-27T14:41:56.989Z,97166.63
2023-03-27T14:44:26.095Z,97180.38
2023-03-27T14:47:15.366Z,97174.47
2023-03-27T14:49:47.519Z,97188.22
2023-03-27T14:52:30.833Z,97185.53
2023-03-27T14:54:59.553Z,97182.81
2023-03-27T14:57:28.364Z,97193.28
2023-03-27T14:59:56.687Z,97191.59
2023-03-27T15:02:30.575Z,97203.84
2023-03-27T15:05:04.886Z,97208.41
2023-03-27T15:07:36.180Z,97218.13
2023-03-27T15:10:06.492Z,97223.63
2023-03-27T15:12:37.077Z,97236.09
2023-03-27T15:15:21.864Z,97242.75
2023-03-27T15:17:50.794Z,97236.91
2023-03-27T15:20:19.218Z,97264.50
2023-03-27T15:23:01.477Z,97267.44
2023-03-27T15:25:44.678Z,97271.38
2023-03-27T15:28:29.667Z,97283.31
2023-03-27T15:31:00.950Z,97301.84
2023-03-27T15:33:37.537Z,97303.16
2023-03-27T15:36:11.143Z,97301.94
2023-03-27T15:38:39.717Z,97313.00
2023-03-27T15:41:09.945Z,97313.59
2023-03-27T15:43:36.814Z,97328.72
2023-03-27T15:46:19.208Z,97327.50
2023-03-27T15:48:50.937Z,97340.28
2023-03-27T15:51:21.212Z,97344.13
2023-03-27T15:53:51.021Z,97349.72
2023-03-27T15:56:26.350Z,97356.31
2023-03-27T15:59:04.518Z,97360.97
2023-03-27T16:02:03.827Z,97370.16
2023-03-27T16:04:55.832Z,97370.78
2023-03-27T16:07:25.384Z,97390.16
2023-03-27T16:09:56.440Z,97387.91
2023-03-27T16:12:31.794Z,97401.34
2023-03-27T16:15:00.910Z,97402.59
2023-03-27T16:17:37.653Z,97405.75
2023-03-27T16:20:12.102Z,97406.94
2023-03-27T16:22:40.115Z,97433.13
2023-03-27T16:25:11.911Z,97440.34
2023-03-27T16:27:48.425Z,97456.31
2023-03-27T16:30:27.776Z,97456.84
2023-03-27T16:32:55.950Z,97468.56
2023-03-27T16:35:23.065Z,97477.59
2023-03-27T16:37:50.380Z,97480.41
2023-03-27T16:40:17.420Z,97495.50
2023-03-27T16:42:44.628Z,97510.44
2023-03-27T16:45:11.712Z,97518.56
2023-03-27T16:47:41.537Z,97520.59
2023-03-27T16:50:17.738Z,97536.41
2023-03-27T16:52:44.953Z,97539.53
2023-03-27T16:55:14.003Z,97545.25
2023-03-27T16:57:42.305Z,97549.00
2023-03-27T17:00:11.058Z,97556.06
2023-03-27T17:02:38.525Z,97560.84
2023-03-27T17:05:08.208Z,97566.19
2023-03-27T17:07:36.122Z,97575.19
2023-03-27T17:10:04.504Z,97573.69
2023-03-27T17:12:32.382Z,97586.97
2023-03-27T17:14:59.373Z,97583.78
2023-03-27T17:17:27.809Z,97587.44
2023-03-27T17:19:54.775Z,97600.66
2023-03-27T17:22:21.889Z,97594.81
2023-03-27T17:24:56.131Z,97608.72
2023-03-27T17:27:26.788Z,97613.09
2023-03-27T17:29:56.161Z,97601.06
2023-03-27T17:32:27.100Z,97610.63
2023-03-27T17:34:54.221Z,97626.22
2023-03-27T17:37:22.364Z,97621.97
2023-03-27T17:39:49.473Z,97619.31
2023-03-27T17:42:18.257Z,97627.09
2023-03-27T17:44:45.569Z,97627.91
2023-03-27T17:47:13.460Z,97632.19
2023-03-27T17:49:41.165Z,97633.88
2023-03-27T17:52:11.399Z,97637.38
2023-03-27T17:54:38.992Z,97646.91
2023-03-27T17:57:06.415Z,97645.97
2023-03-27T17:59:33.738Z,97651.97
2023-03-27T18:02:01.849Z,97659.75
2023-03-27T18:04:29.678Z,97657.94
2023-03-27T18:06:57.079Z,97672.72
2023-03-27T18:09:25.086Z,97667.63
2023-03-27T18:11:52.340Z,97674.41
2023-03-27T18:14:19.227Z,97670.94
2023-03-27T18:16:46.411Z,97671.88
2023-03-27T18:19:14.616Z,97681.44
2023-03-27T18:21:42.485Z,97686.63
2023-03-27T18:24:09.548Z,97686.78
2023-03-27T18:26:36.958Z,97691.94
2023-03-27T18:29:05.055Z,97691.13
2023-03-27T18:31:32.522Z,97687.66
2023-03-27T18:33:59.457Z,97694.53
2023-03-27T18:36:27.380Z,97692.72
2023-03-27T18:38:54.270Z,97691.84
2023-03-27T18:41:21.400Z,97692.69
2023-03-27T18:43:48.257Z,97691.75
2023-03-27T18:46:17.259Z,97696.06
2023-03-27T18:48:46.003Z,97696.00
2023-03-27T18:51:13.388Z,97698.44
2023-03-27T18:53:40.842Z,97694.88
2023-03-27T18:56:08.282Z,97708.63
2023-03-27T18:58:36.013Z,97698.09
2023-03-27T19:01:09.153Z,97709.28
2023-03-27T19:03:37.195Z,97704.84
2023-03-27T19:06:06.501Z,97707.41
2023-03-27T19:08:37.580Z,97704.72
2023-03-27T19:11:06.231Z,97705.56
2023-03-27T19:13:33.289Z,97708.19
2023-03-27T19:16:00.911Z,97711.66
2023-03-27T19:18:30.286Z,97713.41
2023-03-27T19:21:00.910Z,97691.75
2023-03-27T19:23:28.508Z,97708.19
2023-03-27T19:25:56.274Z,97709.88
2023-03-27T19:28:23.236Z,97709.94
2023-03-27T19:30:52.933Z,97716.81
2023-03-27T19:33:20.075Z,97723.78
2023-03-27T19:35:51.810Z,97740.34
2023-03-27T19:38:18.824Z,97742.91
2023-03-27T19:40:46.028Z,97749.00
2023-03-27T19:43:13.866Z,97751.63
2023-03-27T19:45:47.155Z,97758.69
2023-03-27T19:48:14.104Z,97762.13
2023-03-27T19:50:41.497Z,97764.91
2023-03-27T19:53:09.203Z,97767.59
2023-03-27T19:55:37.529Z,97772.91
2023-03-27T19:58:04.414Z,97777.31
2023-03-27T20:00:32.300Z,97776.53
2023-03-27T20:02:59.687Z,97783.63
2023-03-27T20:05:27.749Z,97773.25
2023-03-27T20:07:54.647Z,97775.97
2023-03-27T20:10:22.547Z,97775.13
2023-03-27T20:12:49.553Z,97790.69
2023-03-27T20:15:16.956Z,97788.94
2023-03-27T20:17:43.945Z,97787.28
2023-03-27T20:20:11.707Z,97790.00
2023-03-27T20:22:50.105Z,97790.88
2023-03-27T20:25:24.463Z,97792.66
2023-03-27T20:27:51.427Z,97794.38
2023-03-27T20:30:18.816Z,97804.78
2023-03-27T20:32:45.887Z,97804.00
2023-03-27T20:35:23.564Z,97809.25
2023-03-27T20:37:57.828Z,97816.19
2023-03-27T20:40:26.261Z,97820.63
2023-03-27T20:43:03.619Z,97827.56
2023-03-27T20:45:31.428Z,97831.03
2023-03-27T20:48:03.967Z,97843.16
2023-03-27T20:50:35.288Z,97837.22
2023-03-27T20:53:04.527Z,97829.47
2023-03-27T20:55:34.828Z,97825.13
2023-03-27T20:58:06.715Z,97833.78
2023-03-27T21:00:34.714Z,97836.44
2023-03-27T21:03:02.045Z,97833.78
2023-03-27T21:05:29.341Z,97846.75
2023-03-27T21:07:56.575Z,97847.69
2023-03-27T21:10:25.020Z,97840.75
2023-03-27T21:12:53.739Z,97853.69
2023-03-27T21:15:20.882Z,97859.00
2023-03-27T21:17:47.823Z,97853.84
2023-03-27T21:20:15.668Z,97857.28
2023-03-27T21:22:42.626Z,97853.09
2023-03-27T21:25:09.946Z,97859.19
2023-03-27T21:27:37.510Z,97852.31
2023-03-27T21:30:05.889Z,97854.06
2023-03-27T21:32:32.832Z,97860.22
2023-03-27T21:35:00.030Z,97868.06
2023-03-27T21:37:26.891Z,97868.16
2023-03-27T21:39:54.086Z,97874.22
2023-03-27T21:42:21.925Z,97873.34
2023-03-27T21:44:53.657Z,97875.16
2023-03-27T21:47:22.756Z,97882.91
2023-03-27T21:49:49.961Z,97877.78
2023-03-27T21:52:16.881Z,97880.41
2023-03-27T21:54:53.155Z,97886.44
2023-03-27T21:57:29.251Z,97889.03
2023-03-27T21:59:56.503Z,97884.75
2023-03-27T22:02:23.359Z,97889.88
2023-03-27T22:04:50.737Z,97888.22
2023-03-27T22:07:17.652Z,97883.94
2023-03-27T22:09:45.396Z,97884.88
2023-03-27T22:12:13.107Z,97897.94
2023-03-27T22:14:40.501Z,97903.16
2023-03-27T22:17:07.682Z,97906.72
2023-03-27T22:19:34.998Z,97900.78
2023-03-27T22:22:02.353Z,97901.81
2023-03-27T22:24:29.611Z,97909.53
2023-03-27T22:26:57.103Z,97907.84
2023-03-27T22:29:24.396Z,97906.22
2023-03-27T22:31:51.884Z,97899.34
2023-03-27T22:34:18.993Z,97908.03
2023-03-27T22:36:45.936Z,97902.88
2023-03-27T22:39:13.117Z,97903.81
2023-03-27T22:41:40.100Z,97905.50
2023-03-27T22:44:07.295Z,97912.41
2023-03-27T22:46:34.429Z,97919.41
2023-03-27T22:49:01.640Z,97915.97
2023-03-27T22:51:30.373Z,97915.09
2023-03-27T22:53:57.658Z,97919.47
2023-03-27T22:56:24.771Z,97914.22
2023-03-27T22:58:51.966Z,97922.84
2023-03-27T23:01:18.919Z,97919.41
2023-03-27T23:03:46.296Z,97922.81
2023-03-27T23:06:18.999Z,97927.09
2023-03-27T23:08:48.571Z,97932.25
2023-03-27T23:11:16.235Z,97933.09
2023-03-27T23:13:43.949Z,97941.69
2023-03-27T23:16:11.423Z,97938.28
2023-03-27T23:18:39.013Z,97938.25
2023-03-27T23:21:12.081Z,97945.25
2023-03-27T23:23:40.581Z,97956.44
2023-03-27T23:26:08.264Z,97955.59
2023-03-27T23:28:38.635Z,97963.38
2023-03-27T23:31:20.240Z,97982.38
2023-03-27T23:33:50.798Z,97980.72
2023-03-27T23:36:23.372Z,97987.69
2023-03-27T23:38:51.777Z,97992.00
2023-03-27T23:41:19.299Z,97991.09
2023-03-27T23:43:46.697Z,97995.44
2023-03-27T23:46:14.197Z,97998.13
2023-03-27T23:48:43.028Z,98005.16
2023-03-27T23:51:11.470Z,98001.88
2023-03-27T23:53:38.669Z,98008.91
2023-03-27T23:56:05.877Z,98007.31
2023-03-27T23:58:33.371Z,98010.00
